^^
Saratoga-Weather Station Historical Data
Daily Summary for August 6, 2020 Units:  Metric    English   Both
Daily Weekly Monthly Yearly Custom
  High: Low: Average:
Temperature: 15.3 °C 9.7 °C 11.6 °C
Dew Point: 11.1 °C 8.5 °C 9.7 °C
Humidity: 95% 66% 88%
Wind Speed: 19.5km/h 0km/h 4.2km/h
Wind Gust: 30.6km/h - -
Wind- - WSW
Pressure: 1003.4 hPa 999.7 hPa -
Precipitation: 3.6 mm    
Historical Graphs
 
 
Tabular Data for August 6, 2020
Time Temperature Dew Point Pressure Wind Wind Speed Wind Gust Humidity Rainfall Rate (Hourly) solar
00:04 9.8 °C 8.9 °C 1000.3 hPa Calm     94% 0.0 mm 0 W/m2
00:09 9.8 °C 8.9 °C 1000.0 hPa SE 1.4 km/h 3.2 km/h 94% 0.0 mm 0 W/m2
00:14 9.7 °C 8.8 °C 1000.0 hPa Calm     94% 0.0 mm 0 W/m2
00:19 9.7 °C 8.8 °C 1000.0 hPa Calm     94% 0.0 mm 0 W/m2
00:24 9.7 °C 8.9 °C 1000.0 hPa SE 1.4 km/h 1.6 km/h 95% 0.0 mm 0 W/m2
00:29 9.8 °C 9 °C 1000.0 hPa Calm   1.6 km/h 95% 0.0 mm 0 W/m2
00:34 9.9 °C 9.1 °C 1000.0 hPa ESE 1.4 km/h 1.6 km/h 95% 0.0 mm 0 W/m2
00:39 10 °C 9.2 °C 1000.0 hPa Calm     95% 0.0 mm 0 W/m2
00:44 10.2 °C 9.4 °C 1000.3 hPa NE 1.4 km/h 3.2 km/h 95% 0.0 mm 0 W/m2
00:49 10.3 °C 9.5 °C 1000.3 hPa East 1.4 km/h 4.8 km/h 95% 0.0 mm 0 W/m2
00:54 10.4 °C 9.6 °C 1000.0 hPa Calm   1.6 km/h 95% 0.0 mm 0 W/m2
00:59 10.6 °C 9.8 °C 1000.0 hPa Calm   4.8 km/h 95% 0.0 mm 0 W/m2
01:05 10.6 °C 9.8 °C 1000.0 hPa East 1.4 km/h 3.2 km/h 95% 0.0 mm 0 W/m2
01:10 10.7 °C 9.8 °C 1000.0 hPa ENE 1.4 km/h 4.8 km/h 94% 0.0 mm 0 W/m2
01:15 10.8 °C 9.9 °C 1000.3 hPa WNW 1.4 km/h 6.4 km/h 94% 0.0 mm 0 W/m2
01:20 10.8 °C 9.9 °C 1000.3 hPa NNW 3.2 km/h 4.8 km/h 94% 0.0 mm 0 W/m2
01:25 10.9 °C 10 °C 1000.0 hPa NW 1.4 km/h 9.7 km/h 94% 0.0 mm 0 W/m2
01:30 11 °C 9.9 °C 1000.0 hPa Calm   3.2 km/h 93% 0.0 mm 0 W/m2
01:35 11 °C 9.9 °C 1000.0 hPa Calm   9.7 km/h 93% 0.2 mm 0 W/m2
01:40 11 °C 9.9 °C 1000.0 hPa Calm   6.4 km/h 93% 0.2 mm 0 W/m2
01:45 11 °C 9.9 °C 1000.0 hPa WNW 1.4 km/h 9.7 km/h 93% 0.2 mm 0 W/m2
01:50 11 °C 9.9 °C 999.7 hPa WSW 1.4 km/h 4.8 km/h 93% 0.5 mm 0 W/m2
01:55 11 °C 9.9 °C 1000.0 hPa NNW 3.2 km/h 8 km/h 93% 0.5 mm 0 W/m2
02:00 10.9 °C 9.8 °C 1000.0 hPa WNW 3.2 km/h 3.2 km/h 93% 0.5 mm 0 W/m2
02:05 10.9 °C 9.8 °C 1000.3 hPa North 1.4 km/h 6.4 km/h 93% 0.5 mm 0 W/m2
02:10 10.9 °C 9.8 °C 1000.3 hPa Calm   14.5 km/h 93% 0.5 mm 0 W/m2
02:15 10.9 °C 9.8 °C 1000.3 hPa Calm   1.6 km/h 93% 0.5 mm 0 W/m2
02:20 10.9 °C 9.8 °C 1000.3 hPa North 6.4 km/h 9.7 km/h 93% 0.5 mm 0 W/m2
02:25 10.9 °C 9.8 °C 1000.3 hPa Calm   4.8 km/h 93% 0.5 mm 0 W/m2
02:30 10.9 °C 9.8 °C 1000.3 hPa SSE 1.4 km/h 3.2 km/h 93% 0.8 mm 0 W/m2
02:35 10.8 °C 9.7 °C 1000.3 hPa WNW 6.4 km/h 6.4 km/h 93% 0.5 mm 0 W/m2
02:40 10.8 °C 9.7 °C 1000.3 hPa NW 4.7 km/h 4.8 km/h 93% 0.5 mm 0 W/m2
02:45 10.9 °C 9.8 °C 1000.3 hPa West 1.4 km/h 6.4 km/h 93% 0.5 mm 0 W/m2
02:50 10.8 °C 9.7 °C 1000.3 hPa West 3.2 km/h 11.3 km/h 93% 0.5 mm 0 W/m2
02:56 10.8 °C 9.7 °C 1000.3 hPa WNW 1.4 km/h 3.2 km/h 93% 0.5 mm 0 W/m2
03:01 10.8 °C 9.7 °C 1000.3 hPa WNW 3.2 km/h 6.4 km/h 93% 0.5 mm 0 W/m2
03:06 10.8 °C 9.7 °C 1000.3 hPa WNW 4.7 km/h 6.4 km/h 93% 0.5 mm 0 W/m2
03:11 10.8 °C 9.7 °C 1000.0 hPa NNW 1.4 km/h 6.4 km/h 93% 0.5 mm 0 W/m2
03:16 10.8 °C 9.7 °C 1000.3 hPa North 1.4 km/h 3.2 km/h 93% 0.5 mm 0 W/m2
03:21 10.7 °C 9.6 °C 1000.3 hPa NW 1.4 km/h 11.3 km/h 93% 0.5 mm 0 W/m2
03:26 10.8 °C 9.7 °C 1000.3 hPa WNW 1.4 km/h 4.8 km/h 93% 0.5 mm 0 W/m2
03:31 10.8 °C 9.7 °C 1000.3 hPa NW 1.4 km/h 4.8 km/h 93% 0.2 mm 0 W/m2
03:36 10.7 °C 9.6 °C 1000.3 hPa NNW 1.4 km/h 9.7 km/h 93% 0.2 mm 0 W/m2
03:41 10.7 °C 9.6 °C 1000.3 hPa SW 1.4 km/h 3.2 km/h 93% 0.2 mm 0 W/m2
03:46 10.7 °C 9.6 °C 1000.3 hPa WSW 3.2 km/h 6.4 km/h 93% 0.2 mm 0 W/m2
03:51 10.7 °C 9.6 °C 1000.3 hPa West 4.7 km/h 6.4 km/h 93% 0.2 mm 0 W/m2
03:56 10.7 °C 9.6 °C 1000.3 hPa West 3.2 km/h 4.8 km/h 93% 0.0 mm 0 W/m2
04:01 10.7 °C 9.6 °C 1000.3 hPa Calm   3.2 km/h 93% 0.0 mm 0 W/m2
04:06 10.7 °C 9.6 °C 1000.3 hPa North 3.2 km/h 8 km/h 93% 0.0 mm 0 W/m2
04:11 10.6 °C 9.5 °C 1000.3 hPa NW 3.2 km/h 9.7 km/h 93% 0.0 mm 0 W/m2
04:16 10.6 °C 9.5 °C 1000.3 hPa North 1.4 km/h 4.8 km/h 93% 0.2 mm 0 W/m2
04:21 10.6 °C 9.5 °C 1000.3 hPa NNE 1.4 km/h 3.2 km/h 93% 0.2 mm 0 W/m2
04:26 10.6 °C 9.5 °C 1000.3 hPa Calm   1.6 km/h 93% 0.2 mm 0 W/m2
04:31 10.6 °C 9.5 °C 1000.3 hPa West 1.4 km/h 1.6 km/h 93% 0.2 mm 0 W/m2
04:36 10.5 °C 9.4 °C 1000.3 hPa NE 1.4 km/h 4.8 km/h 93% 0.2 mm 0 W/m2
04:41 10.5 °C 9.4 °C 1000.3 hPa SE 1.4 km/h 8 km/h 93% 0.2 mm 0 W/m2
04:46 10.5 °C 9.4 °C 1000.3 hPa NNW 1.4 km/h 3.2 km/h 93% 0.2 mm 0 W/m2
04:51 10.5 °C 9.4 °C 1000.3 hPa NW 3.2 km/h 4.8 km/h 93% 0.2 mm 0 W/m2
04:56 10.5 °C 9.4 °C 1000.3 hPa North 1.4 km/h 6.4 km/h 93% 0.2 mm 0 W/m2
05:01 10.5 °C 9.4 °C 1000.7 hPa Calm     93% 0.2 mm 0 W/m2
05:06 10.5 °C 9.4 °C 1000.7 hPa NNW 3.2 km/h 3.2 km/h 93% 0.5 mm 0 W/m2
05:11 10.5 °C 9.4 °C 1000.7 hPa WNW 3.2 km/h 6.4 km/h 93% 0.5 mm 0 W/m2
05:16 10.6 °C 9.5 °C 1000.7 hPa WNW 1.4 km/h 4.8 km/h 93% 0.2 mm 0 W/m2
05:21 10.5 °C 9.4 °C 1000.3 hPa WNW 1.4 km/h 8 km/h 93% 0.2 mm 0 W/m2
05:26 10.5 °C 9.4 °C 1000.3 hPa WNW 1.4 km/h 1.6 km/h 93% 0.5 mm 0 W/m2
05:31 10.4 °C 9.3 °C 1000.3 hPa Calm   1.6 km/h 93% 0.5 mm 0 W/m2
05:36 10.4 °C 9.3 °C 1000.7 hPa Calm     93% 0.5 mm 0 W/m2
05:41 10.4 °C 9.3 °C 1000.7 hPa North 1.4 km/h 3.2 km/h 93% 0.5 mm 0 W/m2
05:46 10.3 °C 9.2 °C 1000.7 hPa Calm   3.2 km/h 93% 0.5 mm 0 W/m2
05:51 10.3 °C 9.2 °C 1000.7 hPa West 1.4 km/h 3.2 km/h 93% 0.8 mm 0 W/m2
05:56 10.3 °C 9.2 °C 1000.7 hPa Calm   1.6 km/h 93% 1.0 mm 0 W/m2
06:01 10.3 °C 9.4 °C 1000.7 hPa Calm   1.6 km/h 94% 1.0 mm 7 W/m2
06:06 10.3 °C 9.4 °C 1000.7 hPa NNE 1.4 km/h 4.8 km/h 94% 0.8 mm 7 W/m2
06:11 10.3 °C 9.4 °C 1000.7 hPa East 4.7 km/h 4.8 km/h 94% 0.8 mm 25 W/m2
06:16 10.3 °C 9.2 °C 1000.7 hPa WNW 4.7 km/h 6.4 km/h 93% 1.0 mm 9 W/m2
06:21 10.3 °C 9.2 °C 1000.7 hPa East 1.4 km/h 3.2 km/h 93% 1.0 mm 12 W/m2
06:26 10.3 °C 9.2 °C 1000.7 hPa Calm   8 km/h 93% 0.8 mm 18 W/m2
06:31 10.3 °C 9.2 °C 1000.7 hPa NW 3.2 km/h 4.8 km/h 93% 0.8 mm 12 W/m2
06:36 10.3 °C 9.2 °C 1001.0 hPa NE 1.4 km/h 4.8 km/h 93% 0.8 mm 16 W/m2
06:41 10.3 °C 9.2 °C 1001.0 hPa SW 3.2 km/h 8 km/h 93% 1.0 mm 19 W/m2
06:46 10.3 °C 9.2 °C 1001.0 hPa West 9.7 km/h 9.7 km/h 93% 1.0 mm 30 W/m2
06:51 10.3 °C 9.2 °C 1001.0 hPa NW 3.2 km/h 6.4 km/h 93% 0.5 mm 26 W/m2
06:56 10.3 °C 9.2 °C 1001.0 hPa Calm   9.7 km/h 93% 0.5 mm 26 W/m2
07:01 10.3 °C 9.2 °C 1001.4 hPa WNW 3.2 km/h 9.7 km/h 93% 0.5 mm 47 W/m2
07:06 10.3 °C 9.2 °C 1001.4 hPa SW 3.2 km/h 8 km/h 93% 0.5 mm 37 W/m2
07:11 10.3 °C 9.2 °C 1001.0 hPa North 1.4 km/h 6.4 km/h 93% 0.5 mm 30 W/m2
07:16 10.3 °C 9.2 °C 1001.4 hPa Calm   8 km/h 93% 0.2 mm 40 W/m2
07:21 10.3 °C 9.2 °C 1001.4 hPa NNW 1.4 km/h 3.2 km/h 93% 0.2 mm 25 W/m2
07:26 10.3 °C 9.2 °C 1001.4 hPa Calm   8 km/h 93% 0.2 mm 63 W/m2
07:31 10.3 °C 9.2 °C 1001.4 hPa NE 1.4 km/h 6.4 km/h 93% 0.2 mm 47 W/m2
07:36 10.3 °C 9.2 °C 1001.4 hPa NNW 3.2 km/h 3.2 km/h 93% 0.2 mm 32 W/m2
07:41 10.4 °C 9.3 °C 1001.4 hPa Calm   3.2 km/h 93% 0.0 mm 32 W/m2
07:46 10.4 °C 9.3 °C 1001.4 hPa Calm   4.8 km/h 93% 0.0 mm 62 W/m2
07:52 10.4 °C 9.3 °C 1001.4 hPa East 1.4 km/h 3.2 km/h 93% 0.0 mm 79 W/m2
07:57 10.5 °C 9.4 °C 1001.4 hPa NNE 1.4 km/h 1.6 km/h 93% 0.0 mm 77 W/m2
08:02 10.6 °C 9.5 °C 1001.4 hPa NW 4.7 km/h 6.4 km/h 93% 0.0 mm 77 W/m2
08:07 10.6 °C 9.5 °C 1001.4 hPa WNW 4.7 km/h 9.7 km/h 93% 0.0 mm 139 W/m2
08:12 10.7 °C 9.6 °C 1001.4 hPa Calm   4.8 km/h 93% 0.0 mm 76 W/m2
08:17 10.8 °C 9.7 °C 1001.4 hPa North 4.7 km/h 4.8 km/h 93% 0.0 mm 104 W/m2
08:22 10.8 °C 9.6 °C 1001.4 hPa NW 3.2 km/h 8 km/h 92% 0.0 mm 104 W/m2
08:27 10.9 °C 9.7 °C 1001.4 hPa NNW 3.2 km/h 3.2 km/h 92% 0.0 mm 77 W/m2
08:32 10.9 °C 9.7 °C 1001.7 hPa Calm   8 km/h 92% 0.0 mm 195 W/m2
08:37 11.1 °C 9.8 °C 1001.7 hPa NNW 3.2 km/h 6.4 km/h 92% 0.0 mm 192 W/m2
08:42 11.1 °C 9.8 °C 1001.4 hPa NE 3.2 km/h 11.3 km/h 92% 0.0 mm 207 W/m2
08:47 11.3 °C 10 °C 1001.4 hPa NNW 1.4 km/h 3.2 km/h 92% 0.0 mm 188 W/m2
08:52 11.5 °C 10.2 °C 1001.4 hPa NW 6.4 km/h 8 km/h 92% 0.0 mm 225 W/m2
08:57 11.6 °C 10.2 °C 1001.4 hPa North 6.4 km/h 6.4 km/h 91% 0.0 mm 167 W/m2
09:02 11.7 °C 10.3 °C 1001.4 hPa SSE 6.4 km/h 11.3 km/h 91% 0.0 mm 236 W/m2
09:07 11.7 °C 10.3 °C 1001.7 hPa North 4.7 km/h 6.4 km/h 91% 0.0 mm 137 W/m2
09:12 11.7 °C 10.1 °C 1001.7 hPa ESE 1.4 km/h 4.8 km/h 90% 0.0 mm 185 W/m2
09:17 11.7 °C 10.1 °C 1001.7 hPa NE 1.4 km/h 4.8 km/h 90% 0.0 mm 185 W/m2
09:22 11.7 °C 10.1 °C 1001.7 hPa NW 3.2 km/h 4.8 km/h 90% 0.0 mm 125 W/m2
09:27 11.7 °C 10.1 °C 1001.7 hPa East 3.2 km/h 6.4 km/h 90% 0.0 mm 142 W/m2
09:32 11.8 °C 10.2 °C 1001.7 hPa NNW 13 km/h 14.5 km/h 90% 0.0 mm 250 W/m2
09:37 11.8 °C 10.2 °C 1001.7 hPa WSW 6.4 km/h 8 km/h 90% 0.0 mm 216 W/m2
09:42 12.1 °C 10.5 °C 1001.7 hPa NNW 6.4 km/h 6.4 km/h 90% 0.0 mm 267 W/m2
09:47 12.2 °C 10.4 °C 1001.7 hPa NNE 3.2 km/h 4.8 km/h 89% 0.0 mm 288 W/m2
09:53 12.4 °C 10.5 °C 1001.7 hPa NW 3.2 km/h 4.8 km/h 88% 0.0 mm 183 W/m2
09:58 12.4 °C 10.5 °C 1001.7 hPa Calm   8 km/h 88% 0.0 mm 218 W/m2
10:03 12.4 °C 10.5 °C 1001.7 hPa NNW 4.7 km/h 4.8 km/h 88% 0.0 mm 301 W/m2
10:08 12.4 °C 10.5 °C 1002.0 hPa West 11.1 km/h 11.3 km/h 88% 0.0 mm 211 W/m2
10:13 12.4 °C 10.3 °C 1001.7 hPa SW 9.7 km/h 11.3 km/h 87% 0.0 mm 223 W/m2
10:18 12.3 °C 10.4 °C 1001.7 hPa WNW 1.4 km/h 11.3 km/h 88% 0.0 mm 338 W/m2
10:23 12.3 °C 10.2 °C 1001.4 hPa North 1.4 km/h 4.8 km/h 87% 0.0 mm 251 W/m2
10:28 12.3 °C 10.2 °C 1001.7 hPa West 19.5 km/h 19.3 km/h 87% 0.0 mm 253 W/m2
10:33 12.5 °C 10.4 °C 1001.7 hPa NW 1.4 km/h 6.4 km/h 87% 0.0 mm 710 W/m2
10:38 12.9 °C 11 °C 1001.4 hPa North 3.2 km/h 12.9 km/h 88% 0.0 mm 898 W/m2
10:43 13.3 °C 11 °C 1001.7 hPa NW 6.4 km/h 12.9 km/h 86% 0.0 mm 965 W/m2
10:48 13.6 °C 11.1 °C 1001.7 hPa WNW 6.4 km/h 17.7 km/h 85% 0.0 mm 708 W/m2
10:54 13.6 °C 10.6 °C 1001.7 hPa NNW 6.4 km/h 12.9 km/h 82% 0.0 mm 292 W/m2
10:59 13.5 °C 10.7 °C 1001.7 hPa WSW 1.4 km/h 6.4 km/h 83% 0.0 mm 279 W/m2
11:04 13.6 °C 10.8 °C 1001.7 hPa NNE 1.4 km/h 16.1 km/h 83% 0.0 mm 343 W/m2
11:09 13.6 °C 10.4 °C 1001.7 hPa WNW 6.4 km/h 14.5 km/h 81% 0.0 mm 274 W/m2
11:14 13.7 °C 10.3 °C 1001.4 hPa SW 4.7 km/h 16.1 km/h 80% 0.0 mm 323 W/m2
11:19 13.9 °C 10.5 °C 1001.7 hPa East 6.4 km/h 19.3 km/h 80% 0.0 mm 940 W/m2
11:24 14.2 °C 10.4 °C 1001.7 hPa SSE 3.2 km/h 12.9 km/h 78% 0.0 mm 302 W/m2
11:29 14.2 °C 10.2 °C 1001.7 hPa NW 4.7 km/h 12.9 km/h 77% 0.0 mm 320 W/m2
11:34 14.3 °C 10.3 °C 1001.7 hPa East 4.7 km/h 11.3 km/h 77% 0.2 mm 329 W/m2
11:39 14.5 °C 10.5 °C 1001.7 hPa NW 6.4 km/h 11.3 km/h 77% 0.2 mm 610 W/m2
11:44 14.6 °C 10.2 °C 1001.7 hPa West 9.7 km/h 16.1 km/h 75% 0.2 mm 404 W/m2
11:49 14.8 °C 10 °C 1002.0 hPa NNW 13 km/h 22.5 km/h 73% 0.2 mm 478 W/m2
11:54 14.2 °C 10 °C 1002.4 hPa West 19.5 km/h 25.7 km/h 76% 0.5 mm 79 W/m2
11:59 12.2 °C 9.2 °C 1002.4 hPa WNW 7.9 km/h 19.3 km/h 82% 1.0 mm 204 W/m2
12:05 11.4 °C 9.1 °C 1002.4 hPa SW 13 km/h 24.1 km/h 86% 1.0 mm 169 W/m2
12:10 11.1 °C 9 °C 1002.7 hPa NW 6.4 km/h 17.7 km/h 87% 1.0 mm 260 W/m2
12:15 11 °C 9.1 °C 1002.7 hPa WSW 6.4 km/h 16.1 km/h 88% 1.0 mm 301 W/m2
12:20 11.1 °C 9.4 °C 1002.4 hPa WNW 6.4 km/h 11.3 km/h 89% 1.0 mm 418 W/m2
12:25 11.3 °C 9.7 °C 1002.4 hPa NNW 9.7 km/h 11.3 km/h 90% 1.0 mm 512 W/m2
12:30 11.8 °C 10.2 °C 1002.4 hPa WNW 11.1 km/h 14.5 km/h 90% 1.0 mm 884 W/m2
12:35 12.3 °C 10.2 °C 1002.4 hPa WNW 7.9 km/h 9.7 km/h 87% 0.8 mm 747 W/m2
12:40 12.7 °C 10.2 °C 1002.4 hPa SW 3.2 km/h 20.9 km/h 85% 0.8 mm 1093 W/m2
12:45 13.1 °C 10.6 °C 1002.4 hPa West 11.1 km/h 16.1 km/h 85% 0.8 mm 976 W/m2
12:50 13.5 °C 10.5 °C 1002.4 hPa WNW 14.3 km/h 17.7 km/h 82% 0.8 mm 881 W/m2
12:55 13.8 °C 11 °C 1002.7 hPa West 17.7 km/h 22.5 km/h 83% 0.5 mm 905 W/m2
13:00 14.1 °C 10.5 °C 1002.7 hPa SW 6.4 km/h 22.5 km/h 79% 0.0 mm 946 W/m2
13:05 14.3 °C 10.9 °C 1002.7 hPa West 9.7 km/h 14.5 km/h 80% 0.0 mm 1048 W/m2
13:10 14.6 °C 10.8 °C 1002.7 hPa SSE 7.9 km/h 9.7 km/h 78% 0.0 mm 1000 W/m2
13:15 14.9 °C 11.1 °C 1002.7 hPa SSW 3.2 km/h 19.3 km/h 78% 0.0 mm 1053 W/m2
13:20 14.8 °C 10.4 °C 1002.7 hPa NNW 3.2 km/h 8 km/h 75% 0.0 mm 202 W/m2
13:25 14.7 °C 10.3 °C 1002.7 hPa West 6.4 km/h 14.5 km/h 75% 0.0 mm 251 W/m2
13:30 14.4 °C 10 °C 1002.7 hPa SW 9.7 km/h 14.5 km/h 75% 0.0 mm 195 W/m2
13:35 14.8 °C 10.6 °C 1002.7 hPa WNW 4.7 km/h 12.9 km/h 76% 0.0 mm 974 W/m2
13:40 15.3 °C 10.5 °C 1002.7 hPa West 4.7 km/h 12.9 km/h 73% 0.0 mm 1056 W/m2
13:45 15.2 °C 9.5 °C 1003.0 hPa West 16.3 km/h 30.6 km/h 69% 0.0 mm 220 W/m2
13:50 13.9 °C 8.7 °C 1003.0 hPa NW 11.1 km/h 19.3 km/h 71% 0.0 mm 230 W/m2
13:55 13.3 °C 8.6 °C 1003.0 hPa WNW 13 km/h 16.1 km/h 73% 0.0 mm 200 W/m2
14:00 13 °C 8.5 °C 1003.0 hPa West 4.7 km/h 11.3 km/h 74% 0.0 mm 220 W/m2
14:05 13.2 °C 9.1 °C 1003.0 hPa West 11.1 km/h 14.5 km/h 76% 0.0 mm 1014 W/m2
14:10 13.7 °C 9.1 °C 1003.0 hPa WSW 11.1 km/h 16.1 km/h 74% 0.0 mm 350 W/m2
14:15 14.3 °C 9.5 °C 1003.0 hPa West 13 km/h 16.1 km/h 73% 0.0 mm 916 W/m2
14:21 14.8 °C 9.8 °C 1003.0 hPa West 11.1 km/h 12.9 km/h 72% 0.0 mm 916 W/m2
14:26 15.1 °C 9.7 °C 1003.0 hPa West 6.4 km/h 16.1 km/h 70% 0.0 mm 923 W/m2
14:31 15.3 °C 9.6 °C 1003.0 hPa WSW 13 km/h 17.7 km/h 69% 0.0 mm 1002 W/m2
14:36 15.1 °C 9.2 °C 1003.0 hPa West 13 km/h 19.3 km/h 68% 0.0 mm 1002 W/m2
14:41 14.9 °C 9 °C 1003.4 hPa WNW 11.1 km/h 14.5 km/h 68% 0.0 mm 292 W/m2
14:46 14.8 °C 8.5 °C 1003.4 hPa North 16.3 km/h 24.1 km/h 66% 0.0 mm 343 W/m2
14:51 14.9 °C 8.8 °C 1003.4 hPa SSW 4.7 km/h 14.5 km/h 67% 0.0 mm 911 W/m2
Juneau County Weather
Compliments of Weather Underground - 4 mb